CheckWX is a tool to help pilots better visualize weather data.  It is not intended as a substitute for an official pre-flight weather briefing.

18:35:15 UTC

KHZE METAR
Mercer County Regional Airport
Hazen, North Dakota, USA
Current

20 mins ago

KHZE 241815Z AUTO 33011G18KT 10SM CLR 20/04 A2981 RMK AO2
Observed
Apr-24 @ 18:15 UTC
Wind
  • 330° at 11 KTS
  • Gusting to 18 KTS
Visibility
10 SM
Flight Rules
VFR
Cloud Levels
  • Clear skies
Temperature
20°C / 68°F
Dewpoint
C / 39°F
Humidity
35%
Altimeter
29.81" Hg
Pressure
1009.52 hPa
Previous

40 mins ago

KHZE 241755Z AUTO 31010G17KT 10SM CLR 19/04 A2981 RMK AO2
Observed
Apr-24 @ 17:55 UTC
Wind
  • 310° at 10 KTS
  • Gusting to 17 KTS
Visibility
10 SM
Flight Rules
VFR
Cloud Levels
  • Clear skies
Temperature
19°C / 66°F
Dewpoint
C / 39°F
Humidity
37%
Altimeter
29.81" Hg
Pressure
1009.52 hPa
Previous

60 mins ago

KHZE 241735Z AUTO 33009G16KT 10SM CLR 19/05 A2981 RMK AO2
Observed
Apr-24 @ 17:35 UTC
Wind
  • 330° at 9 KTS
  • Gusting to 16 KTS
Visibility
10 SM
Flight Rules
VFR
Cloud Levels
  • Clear skies
Temperature
19°C / 66°F
Dewpoint
C / 41°F
Humidity
40%
Altimeter
29.81" Hg
Pressure
1009.52 hPa